sensor_id;sensor_type;location;lat;lon;timestamp;pressure;altitude;pressure_sealevel;temperature;humidity
30967;BME280;17649;51.836;8.330;2022-09-01T00:01:30;101568.19;;;17.58;100.00
30967;BME280;17649;51.836;8.330;2022-09-01T00:04:31;101570.38;;;17.51;100.00
30967;BME280;17649;51.836;8.330;2022-09-01T00:07:32;101562.34;;;17.42;100.00
30967;BME280;17649;51.836;8.330;2022-09-01T00:10:34;101569.25;;;17.30;100.00
30967;BME280;17649;51.836;8.330;2022-09-01T00:13:34;101560.88;;;17.25;100.00
30967;BME280;17649;51.836;8.330;2022-09-01T00:16:35;101571.75;;;17.19;100.00
30967;BME280;17649;51.836;8.330;2022-09-01T00:19:36;101569.03;;;17.08;100.00
30967;BME280;17649;51.836;8.330;2022-09-01T00:22:37;101560.63;;;16.90;100.00
30967;BME280;17649;51.836;8.330;2022-09-01T00:25:37;101569.91;;;16.81;100.00
30967;BME280;17649;51.836;8.330;2022-09-01T00:28:38;101574.41;;;16.79;100.00
30967;BME280;17649;51.836;8.330;2022-09-01T00:31:39;101574.00;;;16.73;100.00
30967;BME280;17649;51.836;8.330;2022-09-01T00:34:40;101570.88;;;16.66;100.00
30967;BME280;17649;51.836;8.330;2022-09-01T00:37:40;101578.94;;;16.63;100.00
30967;BME280;17649;51.836;8.330;2022-09-01T00:40:40;101573.91;;;16.60;100.00
30967;BME280;17649;51.836;8.330;2022-09-01T00:44:02;101578.31;;;16.59;100.00
30967;BME280;17649;51.836;8.330;2022-09-01T00:47:04;101573.09;;;16.59;100.00
30967;BME280;17649;51.836;8.330;2022-09-01T00:50:07;101566.28;;;16.57;100.00
30967;BME280;17649;51.836;8.330;2022-09-01T00:53:08;101567.03;;;16.59;100.00
30967;BME280;17649;51.836;8.330;2022-09-01T00:56:09;101565.56;;;16.55;100.00
30967;BME280;17649;51.836;8.330;2022-09-01T00:59:10;101565.09;;;16.48;100.00
30967;BME280;17649;51.836;8.330;2022-09-01T01:02:11;101572.31;;;16.45;100.00
30967;BME280;17649;51.836;8.330;2022-09-01T01:05:12;101575.66;;;16.47;100.00
30967;BME280;17649;51.836;8.330;2022-09-01T01:08:14;101573.13;;;16.45;100.00
30967;BME280;17649;51.836;8.330;2022-09-01T01:11:18;101562.44;;;16.35;100.00
30967;BME280;17649;51.836;8.330;2022-09-01T01:14:18;101566.09;;;16.33;100.00
30967;BME280;17649;51.836;8.330;2022-09-01T01:17:20;101562.22;;;16.26;100.00
30967;BME280;17649;51.836;8.330;2022-09-01T01:20:25;101559.97;;;16.20;100.00
30967;BME280;17649;51.836;8.330;2022-09-01T01:23:51;101561.78;;;16.05;100.00
30967;BME280;17649;51.836;8.330;2022-09-01T01:26:56;101558.81;;;15.97;100.00
30967;BME280;17649;51.836;8.330;2022-09-01T01:30:04;101574.13;;;15.89;100.00
30967;BME280;17649;51.836;8.330;2022-09-01T01:33:07;101565.19;;;15.78;100.00
30967;BME280;17649;51.836;8.330;2022-09-01T01:36:14;101571.81;;;15.70;100.00
30967;BME280;17649;51.836;8.330;2022-09-01T01:39:18;101565.38;;;15.61;100.00
30967;BME280;17649;51.836;8.330;2022-09-01T01:42:19;101576.06;;;15.57;100.00
30967;BME280;17649;51.836;8.330;2022-09-01T01:45:23;101576.44;;;15.50;100.00
30967;BME280;17649;51.836;8.330;2022-09-01T01:48:24;101582.13;;;15.43;100.00
30967;BME280;17649;51.836;8.330;2022-09-01T01:51:24;101573.63;;;15.39;100.00
30967;BME280;17649;51.836;8.330;2022-09-01T01:54:27;101580.72;;;15.37;100.00
30967;BME280;17649;51.836;8.330;2022-09-01T01:57:31;101587.97;;;15.32;100.00
30967;BME280;17649;51.836;8.330;2022-09-01T02:00:33;101577.16;;;15.24;100.00
30967;BME280;17649;51.836;8.330;2022-09-01T02:03:34;101590.38;;;15.21;100.00
30967;BME280;17649;51.836;8.330;2022-09-01T02:06:37;101585.38;;;15.18;100.00
30967;BME280;17649;51.836;8.330;2022-09-01T02:09:41;101587.19;;;15.16;100.00
30967;BME280;17649;51.836;8.330;2022-09-01T02:12:44;101590.81;;;15.13;100.00
30967;BME280;17649;51.836;8.330;2022-09-01T02:15:47;101587.03;;;15.19;100.00
30967;BME280;17649;51.836;8.330;2022-09-01T02:18:48;101586.84;;;15.22;100.00
30967;BME280;17649;51.836;8.330;2022-09-01T02:21:50;101585.16;;;15.21;100.00
30967;BME280;17649;51.836;8.330;2022-09-01T02:24:55;101586.75;;;15.24;100.00
30967;BME280;17649;51.836;8.330;2022-09-01T02:27:56;101584.34;;;15.20;100.00
30967;BME280;17649;51.836;8.330;2022-09-01T02:30:57;101589.69;;;15.17;100.00
30967;BME280;17649;51.836;8.330;2022-09-01T02:33:58;101579.94;;;15.07;100.00
30967;BME280;17649;51.836;8.330;2022-09-01T02:37:00;101588.78;;;15.04;100.00
30967;BME280;17649;51.836;8.330;2022-09-01T02:40:00;101590.03;;;14.97;100.00
30967;BME280;17649;51.836;8.330;2022-09-01T02:43:01;101580.91;;;14.90;100.00
30967;BME280;17649;51.836;8.330;2022-09-01T02:46:01;101586.38;;;14.85;100.00
30967;BME280;17649;51.836;8.330;2022-09-01T02:49:01;101590.94;;;14.82;100.00
30967;BME280;17649;51.836;8.330;2022-09-01T02:52:03;101582.72;;;14.74;100.00
30967;BME280;17649;51.836;8.330;2022-09-01T02:55:07;101589.84;;;14.70;100.00
30967;BME280;17649;51.836;8.330;2022-09-01T02:58:08;101585.94;;;14.63;100.00
30967;BME280;17649;51.836;8.330;2022-09-01T03:01:25;101575.78;;;14.58;100.00
30967;BME280;17649;51.836;8.330;2022-09-01T03:04:28;101589.13;;;14.52;100.00
30967;BME280;17649;51.836;8.330;2022-09-01T03:07:32;101588.56;;;14.47;100.00
30967;BME280;17649;51.836;8.330;2022-09-01T03:10:36;101570.91;;;14.37;100.00
30967;BME280;17649;51.836;8.330;2022-09-01T03:13:40;101581.66;;;14.30;100.00
30967;BME280;17649;51.836;8.330;2022-09-01T03:16:40;101585.44;;;14.25;100.00
30967;BME280;17649;51.836;8.330;2022-09-01T03:19:40;101585.88;;;14.17;100.00
30967;BME280;17649;51.836;8.330;2022-09-01T03:22:44;101588.03;;;14.09;100.00
30967;BME280;17649;51.836;8.330;2022-09-01T03:25:46;101587.19;;;13.93;100.00
30967;BME280;17649;51.836;8.330;2022-09-01T03:28:48;101586.91;;;13.82;100.00
30967;BME280;17649;51.836;8.330;2022-09-01T03:31:49;101590.78;;;13.75;100.00
30967;BME280;17649;51.836;8.330;2022-09-01T03:34:49;101581.75;;;13.64;100.00
30967;BME280;17649;51.836;8.330;2022-09-01T03:37:50;101599.03;;;13.65;100.00
30967;BME280;17649;51.836;8.330;2022-09-01T03:41:03;101590.66;;;13.60;100.00
30967;BME280;17649;51.836;8.330;2022-09-01T03:44:03;101580.50;;;13.56;100.00
30967;BME280;17649;51.836;8.330;2022-09-01T03:47:04;101588.31;;;13.56;100.00
30967;BME280;17649;51.836;8.330;2022-09-01T03:50:10;101590.28;;;13.51;100.00
30967;BME280;17649;51.836;8.330;2022-09-01T03:53:20;101590.44;;;13.48;100.00
30967;BME280;17649;51.836;8.330;2022-09-01T03:56:22;101592.44;;;13.42;100.00
30967;BME280;17649;51.836;8.330;2022-09-01T03:59:24;101588.47;;;13.35;100.00
30967;BME280;17649;51.836;8.330;2022-09-01T04:02:27;101588.88;;;13.28;100.00
30967;BME280;17649;51.836;8.330;2022-09-01T04:05:30;101591.47;;;13.28;100.00
30967;BME280;17649;51.836;8.330;2022-09-01T04:08:32;101594.28;;;13.23;100.00
30967;BME280;17649;51.836;8.330;2022-09-01T04:11:34;101601.25;;;13.23;100.00
30967;BME280;17649;51.836;8.330;2022-09-01T04:14:35;101594.66;;;13.16;100.00
30967;BME280;17649;51.836;8.330;2022-09-01T04:17:35;101594.66;;;13.16;100.00
30967;BME280;17649;51.836;8.330;2022-09-01T04:20:57;101601.06;;;13.08;100.00
30967;BME280;17649;51.836;8.330;2022-09-01T04:23:58;101597.78;;;13.05;100.00
30967;BME280;17649;51.836;8.330;2022-09-01T04:27:04;101606.50;;;13.04;100.00
30967;BME280;17649;51.836;8.330;2022-09-01T04:30:09;101593.81;;;12.98;100.00
30967;BME280;17649;51.836;8.330;2022-09-01T04:33:09;101597.41;;;12.95;100.00
30967;BME280;17649;51.836;8.330;2022-09-01T04:36:20;101597.47;;;12.94;100.00
30967;BME280;17649;51.836;8.330;2022-09-01T04:39:22;101599.31;;;12.92;100.00
30967;BME280;17649;51.836;8.330;2022-09-01T04:42:25;101594.25;;;12.89;100.00
30967;BME280;17649;51.836;8.330;2022-09-01T04:45:26;101600.38;;;12.88;100.00
30967;BME280;17649;51.836;8.330;2022-09-01T04:48:28;101595.34;;;12.84;100.00
30967;BME280;17649;51.836;8.330;2022-09-01T04:51:28;101598.00;;;12.83;100.00
30967;BME280;17649;51.836;8.330;2022-09-01T04:54:29;101596.34;;;12.82;100.00
30967;BME280;17649;51.836;8.330;2022-09-01T04:57:31;101587.06;;;12.76;100.00
30967;BME280;17649;51.836;8.330;2022-09-01T05:00:32;101598.44;;;12.74;100.00
30967;BME280;17649;51.836;8.330;2022-09-01T05:03:32;101590.59;;;12.75;100.00
30967;BME280;17649;51.836;8.330;2022-09-01T05:06:32;101598.22;;;12.78;100.00
30967;BME280;17649;51.836;8.330;2022-09-01T05:09:35;101595.50;;;12.81;100.00
30967;BME280;17649;51.836;8.330;2022-09-01T05:12:36;101588.38;;;12.85;100.00
30967;BME280;17649;51.836;8.330;2022-09-01T05:15:38;101600.38;;;12.88;100.00
30967;BME280;17649;51.836;8.330;2022-09-01T05:18:43;101594.03;;;12.93;100.00
30967;BME280;17649;51.836;8.330;2022-09-01T05:21:47;101595.44;;;13.00;100.00
30967;BME280;17649;51.836;8.330;2022-09-01T05:24:48;101590.91;;;13.04;100.00
30967;BME280;17649;51.836;8.330;2022-09-01T05:27:50;101589.81;;;13.08;100.00
30967;BME280;17649;51.836;8.330;2022-09-01T05:30:51;101596.56;;;13.12;100.00
30967;BME280;17649;51.836;8.330;2022-09-01T05:33:54;101591.22;;;13.15;100.00
30967;BME280;17649;51.836;8.330;2022-09-01T05:36:58;101597.88;;;13.21;100.00
30967;BME280;17649;51.836;8.330;2022-09-01T05:40:00;101595.84;;;13.27;100.00
30967;BME280;17649;51.836;8.330;2022-09-01T05:43:00;101595.66;;;13.30;100.00
30967;BME280;17649;51.836;8.330;2022-09-01T05:46:06;101593.50;;;13.38;100.00
30967;BME280;17649;51.836;8.330;2022-09-01T05:49:07;101600.75;;;13.49;100.00
30967;BME280;17649;51.836;8.330;2022-09-01T05:52:12;101604.56;;;13.59;100.00
30967;BME280;17649;51.836;8.330;2022-09-01T05:55:12;101600.72;;;13.66;100.00
30967;BME280;17649;51.836;8.330;2022-09-01T05:58:15;101600.09;;;13.79;100.00
30967;BME280;17649;51.836;8.330;2022-09-01T06:01:17;101599.59;;;13.88;100.00
30967;BME280;17649;51.836;8.330;2022-09-01T06:04:22;101607.34;;;14.05;100.00
30967;BME280;17649;51.836;8.330;2022-09-01T06:07:24;101599.72;;;14.18;100.00
30967;BME280;17649;51.836;8.330;2022-09-01T06:10:27;101596.34;;;14.31;100.00
30967;BME280;17649;51.836;8.330;2022-09-01T06:13:28;101603.16;;;14.50;100.00
30967;BME280;17649;51.836;8.330;2022-09-01T06:16:29;101582.66;;;14.59;100.00
30967;BME280;17649;51.836;8.330;2022-09-01T06:19:30;101583.47;;;14.76;100.00
30967;BME280;17649;51.836;8.330;2022-09-01T06:22:33;101594.69;;;14.92;100.00
30967;BME280;17649;51.836;8.330;2022-09-01T06:25:36;101590.44;;;15.05;100.00
30967;BME280;17649;51.836;8.330;2022-09-01T06:28:36;101591.97;;;15.24;100.00
30967;BME280;17649;51.836;8.330;2022-09-01T06:31:41;101592.00;;;15.38;100.00
30967;BME280;17649;51.836;8.330;2022-09-01T06:34:42;101595.34;;;15.54;100.00
30967;BME280;17649;51.836;8.330;2022-09-01T06:37:49;101598.09;;;15.67;100.00
30967;BME280;17649;51.836;8.330;2022-09-01T06:40:59;101594.44;;;15.84;100.00
30967;BME280;17649;51.836;8.330;2022-09-01T06:43:59;101600.56;;;16.11;100.00
30967;BME280;17649;51.836;8.330;2022-09-01T06:47:00;101602.44;;;16.09;100.00
30967;BME280;17649;51.836;8.330;2022-09-01T06:50:02;101604.44;;;16.18;100.00
30967;BME280;17649;51.836;8.330;2022-09-01T06:53:02;101601.06;;;16.30;100.00
30967;BME280;17649;51.836;8.330;2022-09-01T06:56:13;101609.59;;;16.47;100.00
30967;BME280;17649;51.836;8.330;2022-09-01T06:59:17;101602.88;;;16.57;100.00
30967;BME280;17649;51.836;8.330;2022-09-01T07:02:34;101600.88;;;16.60;100.00
30967;BME280;17649;51.836;8.330;2022-09-01T07:05:47;101593.00;;;16.75;100.00
30967;BME280;17649;51.836;8.330;2022-09-01T07:08:55;101598.81;;;16.92;100.00
30967;BME280;17649;51.836;8.330;2022-09-01T07:11:56;101607.50;;;17.06;100.00
30967;BME280;17649;51.836;8.330;2022-09-01T07:14:57;101612.34;;;17.12;100.00
30967;BME280;17649;51.836;8.330;2022-09-01T07:17:58;101605.41;;;17.11;100.00
30967;BME280;17649;51.836;8.330;2022-09-01T07:20:59;101609.66;;;17.26;100.00
30967;BME280;17649;51.836;8.330;2022-09-01T07:23:59;101603.56;;;17.38;100.00
30967;BME280;17649;51.836;8.330;2022-09-01T07:27:03;101590.69;;;17.48;100.00
30967;BME280;17649;51.836;8.330;2022-09-01T07:30:04;101605.25;;;17.65;100.00
30967;BME280;17649;51.836;8.330;2022-09-01T07:33:08;101618.84;;;17.82;100.00
30967;BME280;17649;51.836;8.330;2022-09-01T07:36:10;101605.97;;;17.92;100.00
30967;BME280;17649;51.836;8.330;2022-09-01T07:39:12;101611.19;;;17.92;100.00
30967;BME280;17649;51.836;8.330;2022-09-01T07:42:17;101601.31;;;18.08;100.00
30967;BME280;17649;51.836;8.330;2022-09-01T07:45:18;101597.00;;;18.20;100.00
30967;BME280;17649;51.836;8.330;2022-09-01T07:48:19;101590.88;;;18.32;100.00
30967;BME280;17649;51.836;8.330;2022-09-01T07:51:24;101591.56;;;18.47;100.00
30967;BME280;17649;51.836;8.330;2022-09-01T07:54:25;101603.22;;;18.67;100.00
30967;BME280;17649;51.836;8.330;2022-09-01T07:57:26;101594.22;;;18.82;100.00
30967;BME280;17649;51.836;8.330;2022-09-01T08:00:26;101574.56;;;18.76;100.00
30967;BME280;17649;51.836;8.330;2022-09-01T08:03:28;101587.91;;;18.85;100.00
30967;BME280;17649;51.836;8.330;2022-09-01T08:06:30;101579.09;;;18.86;100.00
30967;BME280;17649;51.836;8.330;2022-09-01T08:09:30;101580.63;;;18.88;100.00
30967;BME280;17649;51.836;8.330;2022-09-01T08:12:31;101585.84;;;19.12;100.00
30967;BME280;17649;51.836;8.330;2022-09-01T08:15:31;101591.34;;;19.31;100.00
30967;BME280;17649;51.836;8.330;2022-09-01T08:18:32;101587.19;;;19.40;100.00
30967;BME280;17649;51.836;8.330;2022-09-01T08:21:33;101583.41;;;19.55;100.00
30967;BME280;17649;51.836;8.330;2022-09-01T08:24:33;101587.00;;;19.65;100.00
30967;BME280;17649;51.836;8.330;2022-09-01T08:27:35;101588.19;;;19.84;100.00
30967;BME280;17649;51.836;8.330;2022-09-01T08:30:39;101592.09;;;20.01;100.00
30967;BME280;17649;51.836;8.330;2022-09-01T08:33:42;101583.50;;;20.10;100.00
30967;BME280;17649;51.836;8.330;2022-09-01T08:36:42;101580.09;;;20.30;100.00
30967;BME280;17649;51.836;8.330;2022-09-01T08:39:43;101583.03;;;20.48;100.00
30967;BME280;17649;51.836;8.330;2022-09-01T08:42:52;101572.28;;;20.51;100.00
30967;BME280;17649;51.836;8.330;2022-09-01T08:45:57;101578.13;;;20.54;100.00
30967;BME280;17649;51.836;8.330;2022-09-01T08:49:06;101577.84;;;20.69;100.00
30967;BME280;17649;51.836;8.330;2022-09-01T08:52:17;101572.63;;;20.78;100.00
30967;BME280;17649;51.836;8.330;2022-09-01T08:55:41;101577.00;;;20.89;100.00
30967;BME280;17649;51.836;8.330;2022-09-01T08:58:43;101572.44;;;20.91;100.00
30967;BME280;17649;51.836;8.330;2022-09-01T09:06:16;101573.34;;;21.22;100.00
30967;BME280;17649;51.836;8.330;2022-09-01T09:09:19;101577.53;;;21.25;100.00
30967;BME280;17649;51.836;8.330;2022-09-01T09:15:39;101577.59;;;21.34;100.00
30967;BME280;17649;51.836;8.330;2022-09-01T09:18:52;101570.75;;;21.53;100.00
30967;BME280;17649;51.836;8.330;2022-09-01T09:21:59;101565.44;;;21.83;100.00
30967;BME280;17649;51.836;8.330;2022-09-01T09:25:04;101566.34;;;22.03;100.00
30967;BME280;17649;51.836;8.330;2022-09-01T09:28:06;101561.97;;;22.33;100.00
30967;BME280;17649;51.836;8.330;2022-09-01T09:34:38;101549.44;;;22.73;100.00
30967;BME280;17649;51.836;8.330;2022-09-01T09:37:38;101546.00;;;22.82;100.00
30967;BME280;17649;51.836;8.330;2022-09-01T09:40:55;101539.00;;;23.10;100.00
30967;BME280;17649;51.836;8.330;2022-09-01T09:44:15;101544.59;;;23.35;99.27
30967;BME280;17649;51.836;8.330;2022-09-01T09:47:34;101547.03;;;23.56;91.96
30967;BME280;17649;51.836;8.330;2022-09-01T09:50:40;101544.22;;;23.67;89.70
30967;BME280;17649;51.836;8.330;2022-09-01T09:53:42;101536.19;;;24.04;100.00
30967;BME280;17649;51.836;8.330;2022-09-01T09:56:43;101526.44;;;24.04;76.70
30967;BME280;17649;51.836;8.330;2022-09-01T10:00:44;101533.06;;;24.36;79.04
30967;BME280;17649;51.836;8.330;2022-09-01T10:03:37;101529.50;;;24.45;73.63
30967;BME280;17649;51.836;8.330;2022-09-01T10:06:43;101537.00;;;24.32;71.14
30967;BME280;17649;51.836;8.330;2022-09-01T10:09:46;101525.88;;;24.11;66.98
30967;BME280;17649;51.836;8.330;2022-09-01T10:12:49;101516.75;;;24.41;71.85
30967;BME280;17649;51.836;8.330;2022-09-01T10:15:53;101513.72;;;24.79;61.86
30967;BME280;17649;51.836;8.330;2022-09-01T10:18:56;101521.09;;;24.93;57.87
30967;BME280;17649;51.836;8.330;2022-09-01T10:21:59;101513.50;;;24.98;60.57
30967;BME280;17649;51.836;8.330;2022-09-01T10:25:03;101505.28;;;24.84;100.00
30967;BME280;17649;51.836;8.330;2022-09-01T10:28:09;101513.91;;;24.24;61.71
30967;BME280;17649;51.836;8.330;2022-09-01T10:31:13;101508.97;;;23.94;64.41
30967;BME280;17649;51.836;8.330;2022-09-01T10:34:15;101510.78;;;23.93;66.43
30967;BME280;17649;51.836;8.330;2022-09-01T10:37:17;101509.16;;;24.28;66.20
30967;BME280;17649;51.836;8.330;2022-09-01T10:43:41;101498.81;;;24.34;94.26
30967;BME280;17649;51.836;8.330;2022-09-01T10:46:44;101501.09;;;24.29;70.05
30967;BME280;17649;51.836;8.330;2022-09-01T10:55:59;101498.81;;;24.34;61.34
30967;BME280;17649;51.836;8.330;2022-09-01T10:59:23;101500.56;;;24.44;61.60
30967;BME280;17649;51.836;8.330;2022-09-01T11:02:23;101485.13;;;24.21;63.49
30967;BME280;17649;51.836;8.330;2022-09-01T11:05:24;101498.25;;;23.95;59.66
30967;BME280;17649;51.836;8.330;2022-09-01T11:11:34;101499.34;;;24.02;60.38
30967;BME280;17649;51.836;8.330;2022-09-01T11:14:50;101496.22;;;24.07;55.96
30967;BME280;17649;51.836;8.330;2022-09-01T11:20:52;101490.34;;;24.49;56.08
30967;BME280;17649;51.836;8.330;2022-09-01T11:30:55;101475.28;;;28.76;44.54
30967;BME280;17649;51.836;8.330;2022-09-01T11:34:16;101480.22;;;28.79;41.01
30967;BME280;17649;51.836;8.330;2022-09-01T11:37:20;101480.66;;;27.61;47.72
30967;BME280;17649;51.836;8.330;2022-09-01T11:40:30;101483.84;;;27.18;47.65
30967;BME280;17649;51.836;8.330;2022-09-01T11:43:30;101487.97;;;26.65;51.81
30967;BME280;17649;51.836;8.330;2022-09-01T11:46:33;101476.00;;;26.69;83.83
30967;BME280;17649;51.836;8.330;2022-09-01T11:49:38;101475.44;;;27.37;61.77
30967;BME280;17649;51.836;8.330;2022-09-01T11:52:39;101470.81;;;29.06;49.92
30967;BME280;17649;51.836;8.330;2022-09-01T11:55:49;101467.31;;;31.45;42.06
30967;BME280;17649;51.836;8.330;2022-09-01T11:58:50;101455.69;;;32.59;34.70
30967;BME280;17649;51.836;8.330;2022-09-01T12:01:56;101463.94;;;31.24;35.96
30967;BME280;17649;51.836;8.330;2022-09-01T12:04:57;101467.94;;;30.65;38.99
30967;BME280;17649;51.836;8.330;2022-09-01T12:07:58;101469.06;;;29.85;42.09
30967;BME280;17649;51.836;8.330;2022-09-01T12:11:26;101465.09;;;28.79;38.26
30967;BME280;17649;51.836;8.330;2022-09-01T12:14:29;101470.66;;;29.29;39.16
30967;BME280;17649;51.836;8.330;2022-09-01T12:17:29;101441.25;;;31.81;43.06
30967;BME280;17649;51.836;8.330;2022-09-01T12:20:34;101439.59;;;33.62;32.94
30967;BME280;17649;51.836;8.330;2022-09-01T12:23:39;101437.69;;;34.68;29.21
30967;BME280;17649;51.836;8.330;2022-09-01T12:26:43;101434.66;;;32.56;29.77
30967;BME280;17649;51.836;8.330;2022-09-01T12:29:44;101434.41;;;32.77;30.77
30967;BME280;17649;51.836;8.330;2022-09-01T12:32:46;101425.97;;;33.25;29.12
30967;BME280;17649;51.836;8.330;2022-09-01T12:35:46;101432.22;;;31.82;30.48
30967;BME280;17649;51.836;8.330;2022-09-01T12:38:47;101431.00;;;30.75;33.32
30967;BME280;17649;51.836;8.330;2022-09-01T12:42:09;101449.00;;;29.89;41.82
30967;BME280;17649;51.836;8.330;2022-09-01T12:45:10;101437.19;;;28.90;43.74
30967;BME280;17649;51.836;8.330;2022-09-01T12:48:31;101436.81;;;29.44;39.23
30967;BME280;17649;51.836;8.330;2022-09-01T12:51:31;101440.69;;;29.42;39.47
30967;BME280;17649;51.836;8.330;2022-09-01T12:54:34;101430.22;;;28.89;46.90
30967;BME280;17649;51.836;8.330;2022-09-01T12:57:37;101421.28;;;28.67;47.45
30967;BME280;17649;51.836;8.330;2022-09-01T13:00:56;101432.09;;;28.51;41.17
30967;BME280;17649;51.836;8.330;2022-09-01T13:04:13;101418.78;;;28.36;61.02
30967;BME280;17649;51.836;8.330;2022-09-01T13:07:14;101410.63;;;30.40;49.87
30967;BME280;17649;51.836;8.330;2022-09-01T13:10:15;101404.31;;;33.65;39.07
30967;BME280;17649;51.836;8.330;2022-09-01T13:13:16;101397.16;;;35.48;34.48
30967;BME280;17649;51.836;8.330;2022-09-01T13:16:16;101381.75;;;37.29;27.50
30967;BME280;17649;51.836;8.330;2022-09-01T13:19:16;101388.97;;;38.25;25.25
30967;BME280;17649;51.836;8.330;2022-09-01T13:22:17;101389.41;;;35.40;25.38
30967;BME280;17649;51.836;8.330;2022-09-01T13:25:19;101381.69;;;37.13;24.66
30967;BME280;17649;51.836;8.330;2022-09-01T13:28:20;101376.41;;;37.80;23.60
30967;BME280;17649;51.836;8.330;2022-09-01T13:31:23;101368.47;;;38.51;23.95
30967;BME280;17649;51.836;8.330;2022-09-01T13:34:23;101358.38;;;39.44;22.37
30967;BME280;17649;51.836;8.330;2022-09-01T13:37:23;101352.69;;;39.77;23.87
30967;BME280;17649;51.836;8.330;2022-09-01T13:40:24;101367.84;;;39.73;23.88
30967;BME280;17649;51.836;8.330;2022-09-01T13:43:24;101367.41;;;37.74;23.97
30967;BME280;17649;51.836;8.330;2022-09-01T13:46:26;101376.53;;;34.27;27.32
30967;BME280;17649;51.836;8.330;2022-09-01T13:49:26;101373.13;;;32.36;30.74
30967;BME280;17649;51.836;8.330;2022-09-01T13:52:26;101377.38;;;31.38;32.85
30967;BME280;17649;51.836;8.330;2022-09-01T13:55:29;101364.06;;;34.15;30.34
30967;BME280;17649;51.836;8.330;2022-09-01T13:58:30;101362.63;;;37.02;26.67
30967;BME280;17649;51.836;8.330;2022-09-01T14:01:30;101353.97;;;37.96;28.14
30967;BME280;17649;51.836;8.330;2022-09-01T14:04:30;101357.09;;;36.17;27.89
30967;BME280;17649;51.836;8.330;2022-09-01T14:07:31;101349.53;;;35.37;30.71
30967;BME280;17649;51.836;8.330;2022-09-01T14:10:32;101355.31;;;36.46;28.10
30967;BME280;17649;51.836;8.330;2022-09-01T14:13:32;101355.81;;;35.84;28.76
30967;BME280;17649;51.836;8.330;2022-09-01T14:16:33;101364.75;;;33.22;27.32
30967;BME280;17649;51.836;8.330;2022-09-01T14:19:33;101359.31;;;33.92;29.75
30967;BME280;17649;51.836;8.330;2022-09-01T14:22:35;101348.53;;;36.32;29.00
30967;BME280;17649;51.836;8.330;2022-09-01T14:25:36;101346.47;;;39.13;24.66
30967;BME280;17649;51.836;8.330;2022-09-01T14:28:42;101326.66;;;40.96;22.80
30967;BME280;17649;51.836;8.330;2022-09-01T14:31:47;101330.44;;;41.56;23.57
30967;BME280;17649;51.836;8.330;2022-09-01T14:34:49;101320.63;;;41.81;21.28
30967;BME280;17649;51.836;8.330;2022-09-01T14:37:50;101320.38;;;41.82;20.93
30967;BME280;17649;51.836;8.330;2022-09-01T14:40:50;101318.69;;;42.61;19.42
30967;BME280;17649;51.836;8.330;2022-09-01T14:43:51;101327.81;;;40.33;20.56
30967;BME280;17649;51.836;8.330;2022-09-01T14:46:52;101335.94;;;38.02;21.56
30967;BME280;17649;51.836;8.330;2022-09-01T14:49:53;101336.09;;;34.59;25.64
30967;BME280;17649;51.836;8.330;2022-09-01T14:52:55;101335.41;;;33.84;26.60
30967;BME280;17649;51.836;8.330;2022-09-01T14:55:56;101336.66;;;34.97;24.76
30967;BME280;17649;51.836;8.330;2022-09-01T14:58:57;101322.41;;;34.79;25.51
30967;BME280;17649;51.836;8.330;2022-09-01T15:01:59;101325.66;;;36.74;24.17
30967;BME280;17649;51.836;8.330;2022-09-01T15:04:59;101324.97;;;37.92;22.78
30967;BME280;17649;51.836;8.330;2022-09-01T15:08:00;101324.53;;;39.09;22.11
30967;BME280;17649;51.836;8.330;2022-09-01T15:11:00;101304.41;;;40.99;21.60
30967;BME280;17649;51.836;8.330;2022-09-01T15:14:00;101315.44;;;40.72;21.12
30967;BME280;17649;51.836;8.330;2022-09-01T15:17:00;101314.72;;;39.67;21.03
30967;BME280;17649;51.836;8.330;2022-09-01T15:20:01;101307.66;;;41.11;22.26
30967;BME280;17649;51.836;8.330;2022-09-01T15:23:22;101312.50;;;40.89;20.91
30967;BME280;17649;51.836;8.330;2022-09-01T15:26:22;101302.25;;;41.27;20.39
30967;BME280;17649;51.836;8.330;2022-09-01T15:29:22;101287.25;;;41.60;20.26
30967;BME280;17649;51.836;8.330;2022-09-01T15:32:23;101282.41;;;42.32;23.17
30967;BME280;17649;51.836;8.330;2022-09-01T15:35:23;101287.91;;;40.23;20.29
30967;BME280;17649;51.836;8.330;2022-09-01T15:38:23;101298.91;;;38.41;21.43
30967;BME280;17649;51.836;8.330;2022-09-01T15:41:25;101301.53;;;36.28;23.36
30967;BME280;17649;51.836;8.330;2022-09-01T15:44:25;101300.34;;;34.03;26.91
30967;BME280;17649;51.836;8.330;2022-09-01T15:47:26;101312.44;;;31.90;28.29
30967;BME280;17649;51.836;8.330;2022-09-01T15:50:26;101306.38;;;30.54;31.83
30967;BME280;17649;51.836;8.330;2022-09-01T15:53:26;101309.88;;;30.14;33.03
30967;BME280;17649;51.836;8.330;2022-09-01T15:56:27;101306.25;;;31.70;30.09
30967;BME280;17649;51.836;8.330;2022-09-01T15:59:27;101285.41;;;33.89;28.18
30967;BME280;17649;51.836;8.330;2022-09-01T16:02:27;101298.38;;;34.84;26.72
30967;BME280;17649;51.836;8.330;2022-09-01T16:05:31;101292.00;;;35.97;25.17
30967;BME280;17649;51.836;8.330;2022-09-01T16:08:32;101286.41;;;37.57;23.57
30967;BME280;17649;51.836;8.330;2022-09-01T16:11:32;101283.38;;;38.31;22.86
30967;BME280;17649;51.836;8.330;2022-09-01T16:14:32;101290.84;;;36.85;23.27
30967;BME280;17649;51.836;8.330;2022-09-01T16:20:54;101270.84;;;38.69;22.99
30967;BME280;17649;51.836;8.330;2022-09-01T16:23:58;101265.19;;;39.34;22.97
30967;BME280;17649;51.836;8.330;2022-09-01T16:27:01;101266.91;;;39.88;22.86